sensor_id;sensor_type;location;lat;lon;timestamp;P1;durP1;ratioP1;P2;durP2;ratioP2
26337;SDS011;14050;50.950;4.460;2023-02-01T00:04:12;33.70;;;10.20;;
26337;SDS011;14050;50.950;4.460;2023-02-01T00:09:13;33.97;;;7.07;;
26337;SDS011;14050;50.950;4.460;2023-02-01T00:14:13;25.50;;;7.30;;
26337;SDS011;14050;50.950;4.460;2023-02-01T00:19:14;31.20;;;6.28;;
26337;SDS011;14050;50.950;4.460;2023-02-01T00:24:14;26.15;;;6.35;;
26337;SDS011;14050;50.950;4.460;2023-02-01T00:29:16;31.93;;;8.50;;
26337;SDS011;14050;50.950;4.460;2023-02-01T00:34:16;31.13;;;7.30;;
26337;SDS011;14050;50.950;4.460;2023-02-01T00:39:17;35.75;;;8.15;;
26337;SDS011;14050;50.950;4.460;2023-02-01T00:44:17;31.83;;;7.55;;
26337;SDS011;14050;50.950;4.460;2023-02-01T00:49:18;39.77;;;7.33;;
26337;SDS011;14050;50.950;4.460;2023-02-01T00:54:18;28.30;;;6.70;;
26337;SDS011;14050;50.950;4.460;2023-02-01T00:59:18;35.13;;;7.83;;
26337;SDS011;14050;50.950;4.460;2023-02-01T01:04:19;29.87;;;6.27;;
26337;SDS011;14050;50.950;4.460;2023-02-01T01:09:19;27.00;;;6.38;;
26337;SDS011;14050;50.950;4.460;2023-02-01T01:14:19;33.33;;;6.60;;
26337;SDS011;14050;50.950;4.460;2023-02-01T01:19:20;31.57;;;6.93;;
26337;SDS011;14050;50.950;4.460;2023-02-01T01:24:20;31.38;;;5.80;;
26337;SDS011;14050;50.950;4.460;2023-02-01T01:29:21;25.83;;;6.38;;
26337;SDS011;14050;50.950;4.460;2023-02-01T01:34:22;35.58;;;6.57;;
26337;SDS011;14050;50.950;4.460;2023-02-01T01:39:22;37.30;;;6.67;;
26337;SDS011;14050;50.950;4.460;2023-02-01T01:49:42;24.13;;;5.90;;
26337;SDS011;14050;50.950;4.460;2023-02-01T01:54:43;20.73;;;5.60;;
26337;SDS011;14050;50.950;4.460;2023-02-01T01:59:46;30.05;;;6.18;;
26337;SDS011;14050;50.950;4.460;2023-02-01T02:04:48;29.00;;;5.90;;
26337;SDS011;14050;50.950;4.460;2023-02-01T02:09:49;22.50;;;5.70;;
26337;SDS011;14050;50.950;4.460;2023-02-01T02:14:50;35.60;;;6.22;;
26337;SDS011;14050;50.950;4.460;2023-02-01T02:30:29;28.42;;;5.85;;
26337;SDS011;14050;50.950;4.460;2023-02-01T02:40:37;30.35;;;6.00;;
26337;SDS011;14050;50.950;4.460;2023-02-01T02:51:15;29.92;;;6.22;;
26337;SDS011;14050;50.950;4.460;2023-02-01T02:56:36;33.30;;;6.97;;
26337;SDS011;14050;50.950;4.460;2023-02-01T03:01:56;32.35;;;6.18;;
26337;SDS011;14050;50.950;4.460;2023-02-01T03:12:36;40.22;;;6.38;;
26337;SDS011;14050;50.950;4.460;2023-02-01T03:17:57;28.98;;;6.20;;
26337;SDS011;14050;50.950;4.460;2023-02-01T03:22:58;30.20;;;6.00;;
26337;SDS011;14050;50.950;4.460;2023-02-01T03:28:06;28.40;;;6.80;;
26337;SDS011;14050;50.950;4.460;2023-02-01T03:33:13;38.53;;;6.03;;
26337;SDS011;14050;50.950;4.460;2023-02-01T03:38:25;29.27;;;5.30;;
26337;SDS011;14050;50.950;4.460;2023-02-01T03:43:29;28.05;;;7.45;;
26337;SDS011;14050;50.950;4.460;2023-02-01T03:48:32;39.70;;;6.28;;
26337;SDS011;14050;50.950;4.460;2023-02-01T03:53:33;34.20;;;7.20;;
26337;SDS011;14050;50.950;4.460;2023-02-01T03:58:34;29.70;;;5.70;;
26337;SDS011;14050;50.950;4.460;2023-02-01T04:03:35;28.52;;;5.95;;
26337;SDS011;14050;50.950;4.460;2023-02-01T04:08:35;29.90;;;6.50;;
26337;SDS011;14050;50.950;4.460;2023-02-01T04:13:36;35.00;;;6.23;;
26337;SDS011;14050;50.950;4.460;2023-02-01T04:18:36;29.35;;;5.53;;
26337;SDS011;14050;50.950;4.460;2023-02-01T04:23:36;33.35;;;6.47;;
26337;SDS011;14050;50.950;4.460;2023-02-01T04:28:37;29.90;;;5.78;;
26337;SDS011;14050;50.950;4.460;2023-02-01T04:33:37;37.17;;;6.37;;
26337;SDS011;14050;50.950;4.460;2023-02-01T04:38:37;47.40;;;7.27;;
26337;SDS011;14050;50.950;4.460;2023-02-01T04:43:38;29.33;;;5.60;;
26337;SDS011;14050;50.950;4.460;2023-02-01T04:48:38;38.10;;;7.07;;
26337;SDS011;14050;50.950;4.460;2023-02-01T04:53:38;37.00;;;6.40;;
26337;SDS011;14050;50.950;4.460;2023-02-01T04:58:39;30.93;;;5.67;;
26337;SDS011;14050;50.950;4.460;2023-02-01T05:03:39;32.17;;;6.28;;
26337;SDS011;14050;50.950;4.460;2023-02-01T05:08:39;30.02;;;5.45;;
26337;SDS011;14050;50.950;4.460;2023-02-01T05:13:40;38.03;;;6.10;;
26337;SDS011;14050;50.950;4.460;2023-02-01T05:18:49;39.65;;;6.50;;
26337;SDS011;14050;50.950;4.460;2023-02-01T05:23:49;25.20;;;5.27;;
26337;SDS011;14050;50.950;4.460;2023-02-01T05:29:08;36.45;;;5.93;;
26337;SDS011;14050;50.950;4.460;2023-02-01T05:34:09;40.42;;;7.10;;
26337;SDS011;14050;50.950;4.460;2023-02-01T05:39:10;39.23;;;6.73;;
26337;SDS011;14050;50.950;4.460;2023-02-01T05:44:11;25.00;;;5.15;;
26337;SDS011;14050;50.950;4.460;2023-02-01T05:49:12;36.20;;;6.90;;
26337;SDS011;14050;50.950;4.460;2023-02-01T05:54:13;40.35;;;6.50;;
26337;SDS011;14050;50.950;4.460;2023-02-01T05:59:13;33.10;;;6.43;;
26337;SDS011;14050;50.950;4.460;2023-02-01T06:04:13;42.33;;;6.68;;
26337;SDS011;14050;50.950;4.460;2023-02-01T06:09:13;29.30;;;5.90;;
26337;SDS011;14050;50.950;4.460;2023-02-01T06:14:14;44.63;;;8.10;;
26337;SDS011;14050;50.950;4.460;2023-02-01T06:19:14;47.23;;;7.43;;
26337;SDS011;14050;50.950;4.460;2023-02-01T06:24:15;32.70;;;6.17;;
26337;SDS011;14050;50.950;4.460;2023-02-01T06:29:17;37.45;;;5.70;;
26337;SDS011;14050;50.950;4.460;2023-02-01T06:34:17;38.80;;;6.72;;
26337;SDS011;14050;50.950;4.460;2023-02-01T06:39:18;40.17;;;7.35;;
26337;SDS011;14050;50.950;4.460;2023-02-01T06:44:18;36.08;;;6.97;;
26337;SDS011;14050;50.950;4.460;2023-02-01T06:49:19;41.00;;;6.13;;
26337;SDS011;14050;50.950;4.460;2023-02-01T06:54:19;35.40;;;6.53;;
26337;SDS011;14050;50.950;4.460;2023-02-01T06:59:21;47.67;;;7.43;;
26337;SDS011;14050;50.950;4.460;2023-02-01T07:04:21;28.17;;;5.80;;
26337;SDS011;14050;50.950;4.460;2023-02-01T07:09:22;39.55;;;6.70;;
26337;SDS011;14050;50.950;4.460;2023-02-01T07:14:22;32.60;;;6.97;;
26337;SDS011;14050;50.950;4.460;2023-02-01T07:19:22;34.03;;;6.10;;
26337;SDS011;14050;50.950;4.460;2023-02-01T07:24:22;30.95;;;5.80;;
26337;SDS011;14050;50.950;4.460;2023-02-01T07:29:23;38.58;;;6.30;;
26337;SDS011;14050;50.950;4.460;2023-02-01T07:34:23;32.90;;;6.10;;
26337;SDS011;14050;50.950;4.460;2023-02-01T07:39:24;31.83;;;6.03;;
26337;SDS011;14050;50.950;4.460;2023-02-01T07:44:27;35.15;;;6.75;;
26337;SDS011;14050;50.950;4.460;2023-02-01T07:49:27;36.78;;;6.32;;
26337;SDS011;14050;50.950;4.460;2023-02-01T07:54:27;35.30;;;6.40;;
26337;SDS011;14050;50.950;4.460;2023-02-01T07:59:28;32.67;;;6.53;;
26337;SDS011;14050;50.950;4.460;2023-02-01T08:04:28;28.17;;;4.88;;
26337;SDS011;14050;50.950;4.460;2023-02-01T08:09:29;41.45;;;6.30;;
26337;SDS011;14050;50.950;4.460;2023-02-01T08:14:31;35.67;;;5.97;;
26337;SDS011;14050;50.950;4.460;2023-02-01T08:19:31;31.30;;;7.05;;
26337;SDS011;14050;50.950;4.460;2023-02-01T08:24:31;26.80;;;6.07;;
26337;SDS011;14050;50.950;4.460;2023-02-01T08:29:32;29.80;;;5.73;;
26337;SDS011;14050;50.950;4.460;2023-02-01T08:34:32;42.33;;;7.13;;
26337;SDS011;14050;50.950;4.460;2023-02-01T08:39:32;34.15;;;5.78;;
26337;SDS011;14050;50.950;4.460;2023-02-01T08:44:33;34.53;;;5.68;;
26337;SDS011;14050;50.950;4.460;2023-02-01T08:49:33;30.92;;;6.22;;
26337;SDS011;14050;50.950;4.460;2023-02-01T08:54:33;32.53;;;6.07;;
26337;SDS011;14050;50.950;4.460;2023-02-01T08:59:34;33.58;;;6.57;;
26337;SDS011;14050;50.950;4.460;2023-02-01T09:04:35;37.17;;;6.68;;
26337;SDS011;14050;50.950;4.460;2023-02-01T09:09:36;37.97;;;6.25;;
26337;SDS011;14050;50.950;4.460;2023-02-01T09:14:36;30.73;;;5.97;;
26337;SDS011;14050;50.950;4.460;2023-02-01T09:19:36;28.15;;;6.05;;
26337;SDS011;14050;50.950;4.460;2023-02-01T09:24:37;35.30;;;5.97;;
26337;SDS011;14050;50.950;4.460;2023-02-01T09:29:37;29.13;;;5.63;;
26337;SDS011;14050;50.950;4.460;2023-02-01T09:34:37;32.47;;;5.97;;
26337;SDS011;14050;50.950;4.460;2023-02-01T09:39:38;36.53;;;6.60;;
26337;SDS011;14050;50.950;4.460;2023-02-01T09:44:43;29.02;;;5.78;;
26337;SDS011;14050;50.950;4.460;2023-02-01T09:50:03;32.25;;;5.78;;
26337;SDS011;14050;50.950;4.460;2023-02-01T09:55:07;30.48;;;5.32;;
26337;SDS011;14050;50.950;4.460;2023-02-01T10:00:34;29.52;;;6.22;;
26337;SDS011;14050;50.950;4.460;2023-02-01T10:05:49;31.25;;;5.53;;
26337;SDS011;14050;50.950;4.460;2023-02-01T10:11:13;36.75;;;6.07;;
26337;SDS011;14050;50.950;4.460;2023-02-01T10:16:20;32.08;;;6.05;;
26337;SDS011;14050;50.950;4.460;2023-02-01T10:26:35;37.30;;;6.60;;
26337;SDS011;14050;50.950;4.460;2023-02-01T10:31:37;36.47;;;5.32;;
26337;SDS011;14050;50.950;4.460;2023-02-01T10:36:42;26.33;;;5.55;;
26337;SDS011;14050;50.950;4.460;2023-02-01T10:41:42;25.27;;;5.05;;
26337;SDS011;14050;50.950;4.460;2023-02-01T10:46:45;31.17;;;5.22;;
26337;SDS011;14050;50.950;4.460;2023-02-01T10:51:47;31.52;;;5.35;;
26337;SDS011;14050;50.950;4.460;2023-02-01T10:56:49;24.88;;;5.10;;
26337;SDS011;14050;50.950;4.460;2023-02-01T11:01:50;33.58;;;5.57;;
26337;SDS011;14050;50.950;4.460;2023-02-01T11:07:05;26.48;;;4.65;;
26337;SDS011;14050;50.950;4.460;2023-02-01T11:12:49;28.38;;;5.22;;
26337;SDS011;14050;50.950;4.460;2023-02-01T11:17:35;29.02;;;5.15;;
26337;SDS011;14050;50.950;4.460;2023-02-01T11:22:37;23.63;;;4.47;;
26337;SDS011;14050;50.950;4.460;2023-02-01T11:27:37;22.85;;;5.00;;
26337;SDS011;14050;50.950;4.460;2023-02-01T11:32:38;32.13;;;5.43;;
26337;SDS011;14050;50.950;4.460;2023-02-01T11:37:40;28.08;;;4.88;;
26337;SDS011;14050;50.950;4.460;2023-02-01T11:42:52;20.75;;;3.88;;
26337;SDS011;14050;50.950;4.460;2023-02-01T11:47:54;29.10;;;4.97;;
26337;SDS011;14050;50.950;4.460;2023-02-01T11:53:00;29.85;;;5.25;;
26337;SDS011;14050;50.950;4.460;2023-02-01T12:13:20;20.05;;;4.00;;
26337;SDS011;14050;50.950;4.460;2023-02-01T12:18:48;21.65;;;3.25;;
26337;SDS011;14050;50.950;4.460;2023-02-01T12:23:51;19.77;;;3.50;;
26337;SDS011;14050;50.950;4.460;2023-02-01T12:44:12;16.40;;;2.90;;
26337;SDS011;14050;50.950;4.460;2023-02-01T12:54:19;20.63;;;3.40;;
26337;SDS011;14050;50.950;4.460;2023-02-01T13:04:36;20.27;;;3.63;;
26337;SDS011;14050;50.950;4.460;2023-02-01T13:09:51;19.77;;;3.42;;
26337;SDS011;14050;50.950;4.460;2023-02-01T13:14:58;21.45;;;3.63;;
26337;SDS011;14050;50.950;4.460;2023-02-01T13:25:02;12.53;;;2.53;;
26337;SDS011;14050;50.950;4.460;2023-02-01T13:45:24;15.93;;;3.75;;
26337;SDS011;14050;50.950;4.460;2023-02-01T13:50:34;21.05;;;4.00;;
26337;SDS011;14050;50.950;4.460;2023-02-01T13:55:40;20.08;;;3.13;;
26337;SDS011;14050;50.950;4.460;2023-02-01T14:00:41;17.27;;;3.30;;
26337;SDS011;14050;50.950;4.460;2023-02-01T14:15:54;20.17;;;3.53;;
26337;SDS011;14050;50.950;4.460;2023-02-01T14:31:34;19.10;;;3.47;;
26337;SDS011;14050;50.950;4.460;2023-02-01T14:36:45;18.48;;;3.00;;
26337;SDS011;14050;50.950;4.460;2023-02-01T14:41:47;21.08;;;3.75;;
26337;SDS011;14050;50.950;4.460;2023-02-01T14:52:06;18.30;;;4.35;;
26337;SDS011;14050;50.950;4.460;2023-02-01T14:57:15;17.80;;;3.33;;
26337;SDS011;14050;50.950;4.460;2023-02-01T15:02:19;26.97;;;3.73;;
26337;SDS011;14050;50.950;4.460;2023-02-01T15:07:22;21.83;;;4.32;;
26337;SDS011;14050;50.950;4.460;2023-02-01T15:12:25;21.80;;;4.07;;
26337;SDS011;14050;50.950;4.460;2023-02-01T15:17:28;25.42;;;4.03;;
26337;SDS011;14050;50.950;4.460;2023-02-01T15:22:34;21.10;;;4.45;;
26337;SDS011;14050;50.950;4.460;2023-02-01T15:27:35;18.17;;;4.00;;
26337;SDS011;14050;50.950;4.460;2023-02-01T15:32:37;23.73;;;4.35;;
26337;SDS011;14050;50.950;4.460;2023-02-01T15:37:38;24.88;;;3.88;;
26337;SDS011;14050;50.950;4.460;2023-02-01T15:42:49;22.70;;;4.93;;
26337;SDS011;14050;50.950;4.460;2023-02-01T15:47:52;21.52;;;4.15;;
26337;SDS011;14050;50.950;4.460;2023-02-01T15:52:53;20.40;;;4.65;;
26337;SDS011;14050;50.950;4.460;2023-02-01T15:57:55;28.48;;;5.47;;
26337;SDS011;14050;50.950;4.460;2023-02-01T16:03:00;26.80;;;4.70;;
26337;SDS011;14050;50.950;4.460;2023-02-01T16:13:04;26.10;;;4.90;;
26337;SDS011;14050;50.950;4.460;2023-02-01T16:18:04;18.38;;;4.47;;
26337;SDS011;14050;50.950;4.460;2023-02-01T16:23:05;28.48;;;7.03;;
26337;SDS011;14050;50.950;4.460;2023-02-01T16:28:06;30.48;;;5.80;;
26337;SDS011;14050;50.950;4.460;2023-02-01T16:33:09;24.90;;;4.93;;
26337;SDS011;14050;50.950;4.460;2023-02-01T16:38:12;23.23;;;4.80;;
26337;SDS011;14050;50.950;4.460;2023-02-01T16:43:22;19.70;;;4.35;;
26337;SDS011;14050;50.950;4.460;2023-02-01T16:48:27;24.88;;;5.40;;
26337;SDS011;14050;50.950;4.460;2023-02-01T16:53:30;25.02;;;4.85;;
26337;SDS011;14050;50.950;4.460;2023-02-01T16:58:31;25.98;;;4.40;;
26337;SDS011;14050;50.950;4.460;2023-02-01T17:03:31;22.33;;;4.97;;
26337;SDS011;14050;50.950;4.460;2023-02-01T17:08:32;26.45;;;5.13;;
26337;SDS011;14050;50.950;4.460;2023-02-01T17:13:33;24.27;;;4.75;;
26337;SDS011;14050;50.950;4.460;2023-02-01T17:18:34;18.88;;;4.75;;
26337;SDS011;14050;50.950;4.460;2023-02-01T17:23:34;33.42;;;5.18;;
26337;SDS011;14050;50.950;4.460;2023-02-01T17:28:35;30.23;;;5.20;;
26337;SDS011;14050;50.950;4.460;2023-02-01T17:33:35;35.13;;;5.65;;
26337;SDS011;14050;50.950;4.460;2023-02-01T17:38:36;32.80;;;5.72;;
26337;SDS011;14050;50.950;4.460;2023-02-01T17:43:36;27.42;;;5.20;;
26337;SDS011;14050;50.950;4.460;2023-02-01T17:48:37;37.10;;;5.77;;
26337;SDS011;14050;50.950;4.460;2023-02-01T17:53:38;33.92;;;5.75;;
26337;SDS011;14050;50.950;4.460;2023-02-01T17:58:39;30.23;;;5.25;;
26337;SDS011;14050;50.950;4.460;2023-02-01T18:03:39;25.13;;;5.38;;
26337;SDS011;14050;50.950;4.460;2023-02-01T18:08:40;28.92;;;5.53;;
26337;SDS011;14050;50.950;4.460;2023-02-01T18:13:40;38.40;;;6.67;;
26337;SDS011;14050;50.950;4.460;2023-02-01T18:18:41;32.97;;;5.32;;
26337;SDS011;14050;50.950;4.460;2023-02-01T18:23:42;31.45;;;5.80;;
26337;SDS011;14050;50.950;4.460;2023-02-01T18:28:43;31.42;;;6.45;;
26337;SDS011;14050;50.950;4.460;2023-02-01T18:33:43;39.13;;;6.97;;
26337;SDS011;14050;50.950;4.460;2023-02-01T18:38:44;30.90;;;6.30;;
26337;SDS011;14050;50.950;4.460;2023-02-01T18:43:44;34.80;;;7.50;;
26337;SDS011;14050;50.950;4.460;2023-02-01T18:48:44;30.77;;;6.17;;
26337;SDS011;14050;50.950;4.460;2023-02-01T18:53:45;30.70;;;5.90;;
26337;SDS011;14050;50.950;4.460;2023-02-01T18:58:46;24.30;;;5.55;;
26337;SDS011;14050;50.950;4.460;2023-02-01T19:03:47;32.40;;;5.55;;
26337;SDS011;14050;50.950;4.460;2023-02-01T19:08:48;38.72;;;6.07;;
26337;SDS011;14050;50.950;4.460;2023-02-01T19:13:51;35.28;;;5.55;;
26337;SDS011;14050;50.950;4.460;2023-02-01T19:18:51;34.92;;;6.00;;
26337;SDS011;14050;50.950;4.460;2023-02-01T19:23:52;33.92;;;6.30;;
26337;SDS011;14050;50.950;4.460;2023-02-01T19:28:52;31.63;;;5.55;;
26337;SDS011;14050;50.950;4.460;2023-02-01T19:33:53;35.60;;;6.30;;
26337;SDS011;14050;50.950;4.460;2023-02-01T19:38:53;34.07;;;6.53;;
26337;SDS011;14050;50.950;4.460;2023-02-01T19:43:54;26.55;;;6.40;;
26337;SDS011;14050;50.950;4.460;2023-02-01T19:48:54;35.95;;;5.93;;
26337;SDS011;14050;50.950;4.460;2023-02-01T19:53:54;32.75;;;6.65;;
26337;SDS011;14050;50.950;4.460;2023-02-01T19:58:55;33.25;;;6.10;;
26337;SDS011;14050;50.950;4.460;2023-02-01T20:03:56;44.75;;;7.70;;
26337;SDS011;14050;50.950;4.460;2023-02-01T20:09:01;32.17;;;6.65;;
26337;SDS011;14050;50.950;4.460;2023-02-01T20:14:02;27.40;;;6.93;;
26337;SDS011;14050;50.950;4.460;2023-02-01T20:19:03;44.45;;;7.65;;
26337;SDS011;14050;50.950;4.460;2023-02-01T20:24:05;34.53;;;6.20;;
26337;SDS011;14050;50.950;4.460;2023-02-01T20:29:06;33.75;;;6.10;;
26337;SDS011;14050;50.950;4.460;2023-02-01T20:34:06;43.72;;;8.85;;
26337;SDS011;14050;50.950;4.460;2023-02-01T20:39:07;35.97;;;6.75;;
26337;SDS011;14050;50.950;4.460;2023-02-01T20:44:08;29.80;;;6.45;;
26337;SDS011;14050;50.950;4.460;2023-02-01T20:49:08;35.03;;;6.35;;
26337;SDS011;14050;50.950;4.460;2023-02-01T20:54:08;39.10;;;6.43;;
26337;SDS011;14050;50.950;4.460;2023-02-01T20:59:09;30.67;;;5.68;;
26337;SDS011;14050;50.950;4.460;2023-02-01T21:04:09;42.70;;;7.30;;
26337;SDS011;14050;50.950;4.460;2023-02-01T21:09:10;39.60;;;7.50;;
26337;SDS011;14050;50.950;4.460;2023-02-01T21:14:10;35.55;;;6.82;;
26337;SDS011;14050;50.950;4.460;2023-02-01T21:19:10;37.75;;;7.25;;
26337;SDS011;14050;50.950;4.460;2023-02-01T21:24:11;38.80;;;6.30;;
26337;SDS011;14050;50.950;4.460;2023-02-01T21:29:13;33.10;;;6.17;;
26337;SDS011;14050;50.950;4.460;2023-02-01T21:34:13;35.85;;;6.28;;
26337;SDS011;14050;50.950;4.460;2023-02-01T21:39:14;36.47;;;6.70;;
26337;SDS011;14050;50.950;4.460;2023-02-01T21:44:17;25.83;;;6.15;;
26337;SDS011;14050;50.950;4.460;2023-02-01T21:49:18;34.53;;;6.32;;
26337;SDS011;14050;50.950;4.460;2023-02-01T21:54:18;33.83;;;6.82;;
26337;SDS011;14050;50.950;4.460;2023-02-01T21:59:18;30.90;;;5.97;;
26337;SDS011;14050;50.950;4.460;2023-02-01T22:04:19;43.20;;;7.70;;
26337;SDS011;14050;50.950;4.460;2023-02-01T22:09:20;39.13;;;10.02;;
26337;SDS011;14050;50.950;4.460;2023-02-01T22:14:20;34.05;;;6.15;;
26337;SDS011;14050;50.950;4.460;2023-02-01T22:19:21;36.33;;;7.22;;
26337;SDS011;14050;50.950;4.460;2023-02-01T22:24:21;29.97;;;6.17;;
26337;SDS011;14050;50.950;4.460;2023-02-01T22:29:22;34.50;;;6.87;;
26337;SDS011;14050;50.950;4.460;2023-02-01T22:34:22;28.85;;;5.85;;
26337;SDS011;14050;50.950;4.460;2023-02-01T22:39:24;32.43;;;6.90;;
26337;SDS011;14050;50.950;4.460;2023-02-01T22:44:24;28.15;;;5.57;;
26337;SDS011;14050;50.950;4.460;2023-02-01T22:49:24;20.60;;;5.25;;
26337;SDS011;14050;50.950;4.460;2023-02-01T22:54:25;27.88;;;5.75;;
26337;SDS011;14050;50.950;4.460;2023-02-01T22:59:25;31.63;;;6.13;;
26337;SDS011;14050;50.950;4.460;2023-02-01T23:04:25;31.55;;;5.97;;
26337;SDS011;14050;50.950;4.460;2023-02-01T23:09:26;29.47;;;6.27;;
26337;SDS011;14050;50.950;4.460;2023-02-01T23:14:26;30.97;;;6.13;;
26337;SDS011;14050;50.950;4.460;2023-02-01T23:19:26;30.83;;;6.05;;
26337;SDS011;14050;50.950;4.460;2023-02-01T23:24:27;25.95;;;5.68;;
26337;SDS011;14050;50.950;4.460;2023-02-01T23:29:27;30.30;;;5.53;;
26337;SDS011;14050;50.950;4.460;2023-02-01T23:34:27;31.90;;;5.65;;
26337;SDS011;14050;50.950;4.460;2023-02-01T23:39:28;32.80;;;5.82;;
26337;SDS011;14050;50.950;4.460;2023-02-01T23:44:29;33.08;;;5.70;;
26337;SDS011;14050;50.950;4.460;2023-02-01T23:49:31;29.42;;;6.00;;
26337;SDS011;14050;50.950;4.460;2023-02-01T23:54:31;29.17;;;5.70;;
26337;SDS011;14050;50.950;4.460;2023-02-01T23:59:31;32.83;;;6.57;;
